AirNav   Bose Proflight Series 2 Wireless Aviation Headset
 
 1126 users online  

MI81 Express Heliport
Farmington Hills, Michigan, USA

GOING TO FARMINGTON HILLS?


FAA INFORMATION EFFECTIVE 07 NOVEMBER 2019

Location

FAA Identifier: MI81
Lat/Long: 42-30-50.0000N 083-21-28.0000W
42-30.833333N 083-21.466667W
42.5138889,-83.3577778
(estimated)
Elevation: 895 ft. / 273 m (estimated)
From city: 2 miles N of FARMINGTON HILLS, MI
Time zone: UTC -5 (UTC -4 during Daylight Saving Time)
Zip code: 48334

Heliport Operations

Heliport use: Private use. Permission required prior to landing
Activation date: 05/2006
Control tower: no
ARTCC: CLEVELAND CENTER
FSS: LANSING FLIGHT SERVICE STATION
Attendance: UNATNDD
Wind indicator: yes
Segmented circle: no

Heliport Communications

WX AWOS-3 at VLL (8 nm E): 119.475 (248-288-4649)
WX ASOS at PTK (10 nm N): 125.025 (248-886-8551)
WX ASOS at DET (17 nm E): PHONE 313-371-9696
WX ASOS at DTW (18 nm S): PHONE 734-955-5015
WX ASOS at YIP (18 nm SW): PHONE 734-961-6843

Nearby radio navigation aids

VOR radial/distance  VOR name  Freq  Var
SVMr062/12.2SALEM VORTAC114.3003W
DXOr007/18.0DETROIT VOR/DME113.4006W
YQGr310/28.3WINDSOR VOR/DME113.8006W
CRLr012/28.3CARLETON VOR/DME115.7003W
FNTr154/32.1FLINT VORTAC116.9006W

 
NDB name  Hdg/Dist  Freq  Var  ID
GROSSE ILE347/26.441907WRYS .-. -.-- ...
TECUMSEH045/37.123906WTCU - -.-. ..-

Heliport Services

Runway Information

Helipad H1

Dimensions: 20 x 20 ft. / 6 x 6 m
Surface: aluminumINUM
Operational restrictions: ROOFTOP HELIPAD.
Traffic pattern: leftleft

Heliport Ownership and Management from official FAA records

Ownership: Privately-owned
Owner: MAURICE JANOWITZ
31333 WEST 13 MILE RD
FARMINGTON HILLS, MI 48334
Phone 248-737-4980
Manager: MAURICE JANOWITZ
31333 WEST 13 MILE RD
FARMINGTON HILLS, MI 48334
Phone 248-737-4980

Additional Remarks

10 FT PLINE 70 FT N OF PAD.
OWNER DESIRES HELIPORT NOT BE CHARTED.
FOR CD CTC DETROIT APCH AT 800-499-8181.

Instrument Procedures

There are no published instrument procedures at MI81.

Some nearby airports with instrument procedures:

KVLL - Oakland/Troy Airport (8 nm E)
KPTK - Oakland County International Airport (10 nm N)
1D2 - Canton-Plymouth-Mettetal Airport (11 nm SW)
Y47 - Oakland Southwest Airport (12 nm W)
KDET - Coleman A Young Municipal Airport (17 nm E)
KDTW - Detroit Metropolitan Wayne County Airport (18 nm S)
KYIP - Willow Run Airport (18 nm SW)
 
Loc | Ops | Rwys | IFR | FBO | Links
Com | Nav | Svcs | Stats | Notes
Area around MI81 (Express Heliport)
 
Road maps at: MapQuest Bing Google
 
Aerial photo
No photo
 
Sectional chart

 
Airport distance calculator
Flying to Express Heliport? Find the distance to fly.

From to MI81

Sunrise and sunset
Times for 17-Nov-2019
 Local
(UTC-5)
 Zulu
(UTC)
Morning civil twilight06:5811:58
Sunrise07:2812:28
Sunset17:0922:09
Evening civil twilight17:3922:39

Current date and time
Zulu (UTC)  17-Nov-2019 18:04:58
Local (UTC-5)  17-Nov-2019 13:04:58
 
METAR
KVLL 
8nm E 
171755Z AUTO 10004KT 10SM CLR 04/M04 A3005 RMK AO2 T00401038 10040 21058
KPTK 
10nm N 
171753Z 15006KT 10SM FEW170 BKN250 03/M06 A3001 RMK AO2 SLP173 I6000 T00281061 10028 21094 58028 $
KDET 
17nm SE 
171753Z VRB04KT 10SM CLR 03/M06 A3005 RMK AO2 SLP182 I6000 T00331061 10033 21067 58026
KDTW 
17nm S 
171753Z 10004KT 10SM FEW180 BKN250 04/M04 A3004 RMK AO2 SLP178 I6000 T00391044 10044 21061 58028
KYIP 
19nm SW 
171753Z 00000KT 10SM CLR 04/M05 A3003 RMK AO2 SLP175 T00441050 10044 21067 58030
TAF
KPTK 
10nm N 
171737Z 1718/1818 14005KT P6SM OVC150 FM180400 16005KT P6SM SCT040 OVC080 FM181000 16005KT 4SM BR BKN040 OVC080 FM181600 18005KT 6SM BR SCT040 BKN080 OVC120
KDET 
17nm SE 
171737Z 1718/1818 14005KT P6SM BKN150 OVC250 FM180400 16005KT P6SM SCT040 OVC080 FM181000 16005KT 4SM BR BKN040 OVC080 FM181600 18005KT 6SM BR SCT040 BKN080 OVC120
KDTW 
17nm S 
171737Z 1718/1824 14005KT P6SM BKN150 OVC250 FM180400 16005KT P6SM SCT040 OVC080 FM181000 16005KT 4SM BR BKN040 OVC080 FM181600 18005KT 6SM BR SCT040 BKN080 OVC120 FM182000 28005KT P6SM BKN025 OVC040
KYIP 
19nm SW 
171737Z 1718/1818 14005KT P6SM BKN150 OVC250 FM180400 16005KT P6SM SCT040 OVC080 FM181000 16005KT 4SM BR BKN040 OVC080 FM181600 18005KT 6SM BR SCT040 BKN080 OVC120
NOTAMs
Click for the latest NOTAMs
NOTAMs are issued by the DoD/FAA and will open in a separate window not controlled by AirNav.

 

 
 

Would you like to see your business listed on this page?

 If your business provides an interesting product or service to pilots, flight crews, aircraft, or users of the Express Heliport, you should consider listing it here.  To start the listing process, click on the button below
 
Add a business
 

Other Pages about Express Heliport

Update a link
 
Copyright © AirNav, LLC. All rights reserved. Privacy Policy  Contact